Weather at Curtis Airfield

Public forecast

Using degrees Fahrenheit for public forecast. Weather courtesy of forecast.io.

Closest aviation weather report (METAR) to Curtis Airfield

Report is more than 6 hours old.

Closest report is Eastern Oregon Regional Airport at Pendleton, 10.3 nm (19.1 km) SW.

2022/11/14 15:17 (retrieved 2 years ago)

KPDT 141517Z 00000KT 2SM BR OVC029 M01/M02 A3047 RMK AO2 T10061022

Closest aviation forecast (TAF) to Curtis Airfield

Forecast is more than 12 hours old.

Closest forecast is Eastern Oregon Regional Airport at Pendleton, 10.3 nm (19.1 km) SW.

2023/02/22 18:06 Ammendment (retrieved 1 year ago)

TAF AMD KPDT 221804Z 2218/2318 31010KT 1 1/2SM BR OVC019 TEMPO 2218/2221 1/2SM SN OVC010 FM222200 36011KT 5SM BR OVC019 FM230300 34010KT P6SM SCT030 BKN050 FM230700 29010KT P6SM OVC019 FM231200 31007KT 1 1/2SM -SN OVC015 FM231500 31008KT 1/2SM SN HZ OVC015